Time;durP1;ratioP1;P1;durP2;ratioP2;P2;SDS_P1;SDS_P2;PMS_P1;PMS_P2;Temp;Humidity;BMP_temperature;BMP_pressure;BME280_temperature;BME280_humidity;BME280_pressure;Samples;Min_cycle;Max_cycle;Signal;HPM_P1;HPM_P2
2023/12/27 00:00:04;;;;;;;8.53;3.00;;;;;;;3.62;100.00;101137.50;4969442;28;20206;-72
2023/12/27 00:02:31;;;;;;;3.83;2.23;;;;;;;3.61;100.00;101140.94;4969140;28;20202;-72
2023/12/27 00:04:57;;;;;;;6.20;2.73;;;;;;;3.50;100.00;101138.53;4959199;28;20218;-72
2023/12/27 00:07:24;;;;;;;6.40;2.63;;;;;;;3.45;100.00;101144.44;5016403;23;20692;-73
2023/12/27 00:09:50;;;;;;;7.17;2.37;;;;;;;3.43;100.00;101140.84;5003608;28;20227;-73
2023/12/27 00:12:17;;;;;;;7.13;2.37;;;;;;;3.45;100.00;101146.16;5006378;28;20207;-73
2023/12/27 00:14:43;;;;;;;7.93;2.97;;;;;;;3.50;100.00;101152.53;5000410;28;20312;-73
2023/12/27 00:17:09;;;;;;;7.10;2.83;;;;;;;3.60;100.00;101152.22;5003984;28;20256;-73
2023/12/27 00:19:36;;;;;;;6.80;3.00;;;;;;;3.75;100.00;101160.91;5008587;28;20204;-72
2023/12/27 00:22:03;;;;;;;10.83;3.10;;;;;;;3.96;100.00;101154.97;5007879;28;20235;-73
2023/12/27 00:24:29;;;;;;;6.70;3.57;;;;;;;4.11;100.00;101155.78;5002812;28;20200;-73
2023/12/27 00:26:56;;;;;;;10.00;3.23;;;;;;;4.29;100.00;101156.69;4993674;28;20246;-73
2023/12/27 00:29:22;;;;;;;10.50;3.73;;;;;;;4.28;100.00;101160.13;5006679;28;20744;-73
2023/12/27 00:31:48;;;;;;;13.60;3.50;;;;;;;4.35;100.00;101167.50;5008549;28;20204;-73
2023/12/27 00:34:16;;;;;;;7.03;3.30;;;;;;;4.48;100.00;101161.16;5007486;28;20219;-73
2023/12/27 00:36:43;;;;;;;6.57;3.27;;;;;;;4.57;100.00;101153.75;5021955;28;20243;-73
2023/12/27 00:39:11;;;;;;;10.03;3.03;;;;;;;4.56;100.00;101141.47;5002290;28;20296;-73
2023/12/27 00:41:37;;;;;;;10.67;3.07;;;;;;;4.53;100.00;101137.78;5006100;28;20657;-73
2023/12/27 00:44:04;;;;;;;6.00;2.80;;;;;;;4.49;100.00;101128.88;5006303;28;20606;-73
2023/12/27 00:46:30;;;;;;;8.30;2.77;;;;;;;4.47;100.00;101134.88;5006194;28;20228;-73
2023/12/27 00:48:56;;;;;;;7.93;2.80;;;;;;;4.44;100.00;101129.47;5006026;28;20220;-73
2023/12/27 00:51:23;;;;;;;7.60;2.83;;;;;;;4.43;100.00;101127.66;5004408;28;20193;-73
2023/12/27 00:53:49;;;;;;;5.77;2.73;;;;;;;4.42;100.00;101136.38;5005063;28;20196;-73
2023/12/27 00:56:16;;;;;;;6.50;2.53;;;;;;;4.40;100.00;101136.25;5008015;28;20224;-73
2023/12/27 00:58:42;;;;;;;7.23;2.47;;;;;;;4.40;100.00;101126.69;5009424;28;20196;-73
2023/12/27 01:01:11;;;;;;;6.63;3.27;;;;;;;4.30;100.00;101127.03;4998504;28;20197;-72
2023/12/27 01:03:38;;;;;;;8.03;2.67;;;;;;;4.28;100.00;101118.19;5000136;28;20207;-72
2023/12/27 01:06:06;;;;;;;8.50;2.77;;;;;;;4.33;100.00;101121.94;5019927;28;20232;-73
2023/12/27 01:08:32;;;;;;;9.43;3.17;;;;;;;4.51;100.00;101126.31;5008307;28;20204;-73
2023/12/27 01:10:59;;;;;;;8.30;2.47;;;;;;;4.42;100.00;101134.63;5009969;28;20279;-73
2023/12/27 01:13:26;;;;;;;5.77;2.70;;;;;;;4.28;100.00;101138.28;5006998;28;20232;-73
2023/12/27 01:15:52;;;;;;;6.43;3.00;;;;;;;4.21;100.00;101144.03;5004290;28;20225;-73
2023/12/27 01:18:18;;;;;;;10.87;3.37;;;;;;;4.08;100.00;101140.78;5009335;28;20209;-73
2023/12/27 01:20:45;;;;;;;7.33;3.40;;;;;;;3.98;100.00;101138.50;5006058;28;20251;-73
2023/12/27 01:23:12;;;;;;;7.13;3.17;;;;;;;3.92;100.00;101137.28;5008636;28;20209;-73
2023/12/27 01:25:38;;;;;;;7.87;2.80;;;;;;;3.84;100.00;101149.09;5024508;28;20299;-72
2023/12/27 01:28:05;;;;;;;7.13;2.70;;;;;;;3.77;100.00;101158.34;5008931;28;20202;-72
2023/12/27 01:30:31;;;;;;;6.27;2.40;;;;;;;3.82;100.00;101158.59;5007034;28;20648;-73
2023/12/27 01:32:58;;;;;;;6.03;2.50;;;;;;;4.05;100.00;101163.31;5010497;28;20246;-72
2023/12/27 01:35:25;;;;;;;8.60;2.80;;;;;;;3.99;100.00;101158.63;5008961;28;20224;-73
2023/12/27 01:37:52;;;;;;;6.30;2.37;;;;;;;4.04;100.00;101169.38;5009176;28;20220;-73
2023/12/27 01:40:18;;;;;;;8.13;2.57;;;;;;;4.14;100.00;101174.28;5009648;28;20254;-73
2023/12/27 01:42:44;;;;;;;7.47;2.87;;;;;;;4.12;100.00;101172.41;5008424;28;20205;-73
2023/12/27 01:45:11;;;;;;;5.87;2.00;;;;;;;4.15;100.00;101177.81;5007925;28;20196;-73
2023/12/27 01:47:37;;;;;;;6.97;2.60;;;;;;;4.12;100.00;101168.06;5005552;28;20270;-73
2023/12/27 01:50:09;;;;;;;8.40;2.67;;;;;;;4.15;100.00;101173.47;5024732;28;20207;-73
2023/12/27 01:52:36;;;;;;;11.60;2.70;;;;;;;4.18;100.00;101173.63;5007719;28;20231;-73
2023/12/27 01:55:03;;;;;;;16.97;2.80;;;;;;;4.13;100.00;101164.63;5009054;28;20224;-73
2023/12/27 01:57:30;;;;;;;6.07;2.53;;;;;;;4.26;100.00;101171.38;5009225;28;20220;-73
2023/12/27 01:59:56;;;;;;;8.20;3.03;;;;;;;4.22;100.00;101172.94;5008814;28;20252;-72
2023/12/27 02:02:24;;;;;;;6.97;2.40;;;;;;;4.19;100.00;101157.06;5006785;28;20211;-73
2023/12/27 02:04:50;;;;;;;8.57;2.73;;;;;;;4.24;100.00;101158.19;5001937;28;20286;-72
2023/12/27 02:07:18;;;;;;;9.77;2.63;;;;;;;4.23;100.00;101161.63;5003199;28;20259;-73
2023/12/27 02:09:57;;;;;;;6.23;2.60;;;;;;;4.20;100.00;101156.25;4995838;28;20272;-73
2023/12/27 02:12:27;;;;;;;4.43;2.40;;;;;;;4.09;100.00;101158.31;5005705;28;20205;-73
2023/12/27 02:14:54;;;;;;;5.87;2.80;;;;;;;4.04;100.00;101153.66;4999830;28;20251;-73
2023/12/27 02:17:22;;;;;;;6.33;2.40;;;;;;;4.03;100.00;101165.88;5007497;28;20231;-72
2023/12/27 02:19:50;;;;;;;8.37;2.57;;;;;;;4.14;100.00;101165.50;5022501;28;20203;-73
2023/12/27 02:22:22;;;;;;;4.37;2.47;;;;;;;4.28;100.00;101167.09;5006964;28;20224;-73
2023/12/27 02:28:36;;;;;;;8.23;2.47;;;;;;;4.56;100.00;101161.53;4990012;28;20200;-73
2023/12/27 02:31:02;;;;;;;6.93;2.30;;;;;;;4.55;100.00;101147.53;5022029;28;20582;-73
2023/12/27 02:33:29;;;;;;;4.63;2.37;;;;;;;4.56;100.00;101143.19;5003678;28;20211;-72
2023/12/27 02:35:56;;;;;;;7.97;2.40;;;;;;;4.56;100.00;101136.22;5005033;28;20228;-73
2023/12/27 02:38:22;;;;;;;5.97;2.57;;;;;;;4.58;100.00;101131.94;5000987;28;20551;-73
2023/12/27 02:40:49;;;;;;;5.10;2.27;;;;;;;4.64;100.00;101126.09;5000281;28;20203;-73
2023/12/27 02:43:15;;;;;;;4.30;2.40;;;;;;;4.71;100.00;101123.84;5006175;28;20234;-73
2023/12/27 02:45:42;;;;;;;8.73;2.27;;;;;;;4.71;100.00;101107.19;5004086;28;20283;-73
2023/12/27 02:48:08;;;;;;;6.27;2.13;;;;;;;4.65;100.00;101114.75;5018826;28;20289;-73
2023/12/27 02:50:35;;;;;;;6.93;1.97;;;;;;;4.61;100.00;101118.06;4996505;28;20201;-72
2023/12/27 02:53:02;;;;;;;7.80;2.37;;;;;;;4.62;100.00;101117.25;5004038;28;20697;-73
2023/12/27 02:55:28;;;;;;;8.10;2.80;;;;;;;4.54;100.00;101109.00;4997100;28;20635;-73
2023/12/27 02:57:56;;;;;;;8.07;2.70;;;;;;;4.44;100.00;101095.38;5000791;28;20218;-73
2023/12/27 03:00:23;;;;;;;6.17;2.27;;;;;;;4.39;100.00;101100.38;4997149;28;20664;-73
2023/12/27 03:02:50;;;;;;;5.13;2.13;;;;;;;4.36;100.00;101098.50;5002845;28;20194;-73
2023/12/27 03:05:16;;;;;;;5.67;2.30;;;;;;;4.30;100.00;101089.44;4998551;28;20200;-73
2023/12/27 03:07:43;;;;;;;6.13;2.60;;;;;;;4.26;100.00;101090.09;4999969;28;20236;-73
2023/12/27 03:10:11;;;;;;;5.97;2.57;;;;;;;4.28;100.00;101083.22;5003967;28;20688;-73
2023/12/27 03:12:37;;;;;;;5.27;2.30;;;;;;;4.25;100.00;101069.94;5004049;28;20194;-72
2023/12/27 03:15:04;;;;;;;5.80;2.20;;;;;;;4.21;100.00;101078.50;5000290;28;20559;-73
2023/12/27 03:17:31;;;;;;;4.73;2.33;;;;;;;4.16;100.00;101085.22;5006128;28;20217;-73
2023/12/27 03:19:57;;;;;;;6.83;2.20;;;;;;;4.12;100.00;101088.53;5004987;28;20666;-73
2023/12/27 03:22:24;;;;;;;5.63;2.53;;;;;;;4.00;100.00;101089.72;5004956;28;20214;-73
2023/12/27 03:24:50;;;;;;;7.63;2.50;;;;;;;3.98;100.00;101078.22;5005018;28;20204;-73
2023/12/27 03:27:16;;;;;;;5.10;2.33;;;;;;;3.99;100.00;101071.25;4996551;28;20583;-73
2023/12/27 03:29:43;;;;;;;9.00;2.43;;;;;;;4.05;100.00;101074.22;5018400;28;20632;-72
2023/12/27 03:32:09;;;;;;;4.27;2.10;;;;;;;4.11;100.00;101076.25;5007317;28;20240;-72
2023/12/27 03:34:38;;;;;;;5.97;2.23;;;;;;;4.18;100.00;101074.00;5003881;28;20239;-73
2023/12/27 03:37:04;;;;;;;6.90;2.23;;;;;;;4.26;100.00;101082.25;5019358;28;20225;-73
2023/12/27 03:39:31;;;;;;;4.87;2.23;;;;;;;4.34;100.00;101076.53;5008299;28;20239;-73
2023/12/27 03:41:57;;;;;;;6.57;2.37;;;;;;;4.45;100.00;101078.81;4998217;28;20711;-73
2023/12/27 03:44:24;;;;;;;7.17;2.83;;;;;;;4.67;100.00;101079.00;5001297;28;20211;-73
2023/12/27 03:46:50;;;;;;;7.67;2.97;;;;;;;4.89;100.00;101080.94;5007998;28;20209;-74
2023/12/27 03:49:16;;;;;;;6.10;2.93;;;;;;;5.01;100.00;101079.78;5024365;28;20585;-73
2023/12/27 03:51:43;;;;;;;7.53;2.63;;;;;;;5.08;100.00;101066.94;5009775;28;20241;-74
2023/12/27 03:54:09;;;;;;;7.90;2.97;;;;;;;5.12;100.00;101074.13;5008915;28;20198;-73
2023/12/27 03:56:36;;;;;;;14.07;3.47;;;;;;;5.12;100.00;101082.00;5003884;28;20284;-73
2023/12/27 03:59:05;;;;;;;5.37;3.20;;;;;;;5.14;100.00;101075.09;5002038;28;20238;-73
2023/12/27 04:01:32;;;;;;;7.83;3.33;;;;;;;5.20;100.00;101075.38;5009801;28;20211;-73
2023/12/27 04:03:58;;;;;;;7.07;3.60;;;;;;;5.38;100.00;101070.97;5006400;28;20201;-73
2023/12/27 04:06:25;;;;;;;11.50;3.23;;;;;;;5.39;100.00;101067.50;5007235;28;20236;-73
2023/12/27 04:08:51;;;;;;;6.67;3.50;;;;;;;5.33;100.00;101062.88;5001525;28;20578;-73
2023/12/27 04:11:18;;;;;;;9.93;3.43;;;;;;;5.43;100.00;101069.44;5008236;28;20662;-73
2023/12/27 04:13:44;;;;;;;5.50;2.90;;;;;;;5.41;100.00;101063.22;5021925;28;20704;-73
2023/12/27 04:16:11;;;;;;;9.03;3.37;;;;;;;5.39;100.00;101057.00;5008803;28;20737;-73
2023/12/27 04:18:37;;;;;;;7.97;2.93;;;;;;;5.36;100.00;101062.13;5007720;28;20228;-73
2023/12/27 04:21:04;;;;;;;6.03;3.07;;;;;;;5.40;100.00;101063.16;5002505;28;20202;-73
2023/12/27 04:23:31;;;;;;;9.70;3.50;;;;;;;5.38;100.00;101067.44;5019933;28;20199;-73
2023/12/27 04:25:57;;;;;;;8.47;3.60;;;;;;;5.42;100.00;101066.75;5005990;28;20194;-73
2023/12/27 04:28:23;;;;;;;10.83;3.63;;;;;;;5.51;100.00;101062.78;5000002;28;20231;-73
2023/12/27 04:30:50;;;;;;;6.40;2.93;;;;;;;5.54;100.00;101055.03;5010936;28;20201;-73
2023/12/27 04:33:16;;;;;;;10.23;3.60;;;;;;;5.52;100.00;101054.09;5011591;28;20287;-74
2023/12/27 04:35:43;;;;;;;7.60;3.87;;;;;;;5.52;100.00;101063.69;5016583;28;20265;-73
2023/12/27 04:38:13;;;;;;;9.50;3.70;;;;;;;5.50;100.00;101063.63;5017313;28;20220;-73
2023/12/27 04:40:45;;;;;;;8.13;3.43;;;;;;;5.50;100.00;101070.59;5003386;28;20715;-73
2023/12/27 04:43:11;;;;;;;6.67;3.57;;;;;;;5.49;100.00;101067.09;5007382;28;20235;-73
2023/12/27 04:45:38;;;;;;;8.00;3.83;;;;;;;5.52;100.00;101074.19;5005189;28;20661;-73
2023/12/27 04:48:05;;;;;;;7.07;3.40;;;;;;;5.52;100.00;101068.94;5008161;28;20307;-73
2023/12/27 04:50:32;;;;;;;5.43;3.07;;;;;;;5.49;100.00;101071.44;5007845;28;20241;-73
2023/12/27 04:52:58;;;;;;;6.60;3.30;;;;;;;5.53;100.00;101065.50;5000223;28;20293;-73
2023/12/27 04:55:25;;;;;;;8.70;4.13;;;;;;;5.58;100.00;101059.59;5018812;28;20223;-73
2023/12/27 04:57:51;;;;;;;8.40;4.67;;;;;;;5.64;100.00;101067.78;5004570;28;20216;-74
2023/12/27 05:00:18;;;;;;;9.50;4.60;;;;;;;5.71;100.00;101061.06;4998698;28;20206;-73
2023/12/27 05:02:44;;;;;;;7.60;4.73;;;;;;;5.78;100.00;101062.22;5005116;28;20564;-73
2023/12/27 05:05:10;;;;;;;9.10;4.60;;;;;;;5.77;100.00;101057.78;5017638;28;20204;-73
2023/12/27 05:07:37;;;;;;;8.80;4.10;;;;;;;5.79;100.00;101054.41;4998747;28;20223;-73
2023/12/27 05:10:03;;;;;;;7.33;4.23;;;;;;;5.83;100.00;101058.06;4997423;28;20214;-73
2023/12/27 05:12:30;;;;;;;11.57;5.47;;;;;;;5.85;100.00;101056.38;5005804;28;20207;-73
2023/12/27 05:14:57;;;;;;;8.67;5.20;;;;;;;5.81;100.00;101046.56;5005779;28;20269;-73
2023/12/27 05:17:26;;;;;;;11.33;5.07;;;;;;;5.79;100.00;101054.41;5005575;28;20246;-72
2023/12/27 05:19:52;;;;;;;7.83;4.30;;;;;;;5.82;100.00;101044.00;5002326;28;20249;-73
2023/12/27 05:22:20;;;;;;;10.93;5.17;;;;;;;5.81;100.00;101041.31;5000585;28;20207;-73
2023/12/27 05:24:47;;;;;;;10.47;4.97;;;;;;;5.90;100.00;101050.53;5005746;28;20266;-73
2023/12/27 05:27:13;;;;;;;13.37;5.20;;;;;;;5.89;100.00;101050.44;5005233;28;20305;-74
2023/12/27 05:29:40;;;;;;;10.57;4.70;;;;;;;5.87;100.00;101033.69;5005598;28;20200;-73
2023/12/27 05:32:06;;;;;;;9.67;5.20;;;;;;;5.90;100.00;101047.00;5004630;28;20227;-73
2023/12/27 05:34:33;;;;;;;9.30;5.23;;;;;;;5.91;100.00;101046.16;5007952;28;20227;-73
2023/12/27 05:37:00;;;;;;;13.27;5.83;;;;;;;5.90;100.00;101044.38;5004831;28;20707;-73
2023/12/27 05:39:26;;;;;;;8.57;5.27;;;;;;;5.96;100.00;101045.53;5004912;28;20204;-73
2023/12/27 05:41:53;;;;;;;13.50;6.23;;;;;;;6.08;100.00;101042.53;5000063;28;20278;-73
2023/12/27 05:44:19;;;;;;;12.63;5.60;;;;;;;6.15;100.00;101044.56;5006304;28;20193;-73
2023/12/27 05:46:45;;;;;;;12.23;5.90;;;;;;;6.12;100.00;101030.41;5008107;28;20215;-73
2023/12/27 05:49:12;;;;;;;11.43;5.90;;;;;;;6.15;100.00;101030.53;5004006;28;20205;-73
2023/12/27 05:51:39;;;;;;;15.03;6.17;;;;;;;6.22;100.00;101035.22;5009393;28;20203;-73
2023/12/27 05:54:06;;;;;;;10.57;6.27;;;;;;;6.25;100.00;101033.59;5001800;28;20207;-73
2023/12/27 05:56:33;;;;;;;12.33;6.77;;;;;;;6.25;100.00;101025.72;5007531;28;20230;-73
2023/12/27 05:59:00;;;;;;;15.43;6.40;;;;;;;6.22;100.00;101025.59;5008962;28;20205;-73
2023/12/27 06:01:26;;;;;;;10.93;5.77;;;;;;;6.19;100.00;101030.72;5003469;28;20235;-72
2023/12/27 06:03:53;;;;;;;14.63;6.03;;;;;;;6.19;100.00;101030.72;5003277;28;20614;-73
2023/12/27 06:06:19;;;;;;;13.63;6.50;;;;;;;6.18;100.00;101042.06;5027413;22;20235;-72
2023/12/27 06:08:46;;;;;;;11.53;6.27;;;;;;;6.20;100.00;101045.66;4992675;28;20332;-73
2023/12/27 06:11:12;;;;;;;18.40;6.30;;;;;;;6.17;100.00;101042.91;4990128;28;20199;-71
2023/12/27 06:13:39;;;;;;;18.67;7.90;;;;;;;6.20;100.00;101056.19;4991973;28;20211;-72
2023/12/27 06:16:06;;;;;;;17.23;7.47;;;;;;;6.29;100.00;101047.75;4988064;28;20234;-71
2023/12/27 06:18:33;;;;;;;15.57;7.40;;;;;;;6.34;100.00;101056.75;4999545;28;20294;-72
2023/12/27 06:21:00;;;;;;;15.70;7.03;;;;;;;6.29;100.00;101051.28;5000263;28;21551;-72
2023/12/27 06:23:28;;;;;;;13.93;6.90;;;;;;;6.27;100.00;101052.06;4990036;28;20201;-72
2023/12/27 06:25:55;;;;;;;14.73;7.63;;;;;;;6.24;100.00;101031.81;4988523;28;20205;-71
2023/12/27 06:28:22;;;;;;;14.03;7.37;;;;;;;6.35;100.00;101034.84;4989813;28;20223;-71
2023/12/27 06:30:48;;;;;;;18.87;8.37;;;;;;;6.33;100.00;101033.91;4986367;28;20390;-72
2023/12/27 06:33:15;;;;;;;19.37;7.93;;;;;;;6.39;100.00;101044.66;4992646;28;20210;-71
2023/12/27 06:35:41;;;;;;;19.50;8.60;;;;;;;6.40;100.00;101043.84;4986160;28;20286;-71
2023/12/27 06:38:08;;;;;;;19.37;8.53;;;;;;;6.40;100.00;101043.84;4993958;28;20229;-72
2023/12/27 06:40:34;;;;;;;19.97;9.00;;;;;;;6.35;100.00;101029.59;4991252;28;20228;-71
2023/12/27 06:43:01;;;;;;;22.63;9.60;;;;;;;6.37;100.00;101033.19;4993917;28;20623;-71
2023/12/27 06:45:27;;;;;;;24.50;9.53;;;;;;;6.41;100.00;101035.13;4994825;28;20658;-71
2023/12/27 06:47:54;;;;;;;24.33;9.27;;;;;;;6.46;100.00;101036.22;4989746;28;20218;-71
2023/12/27 06:50:20;;;;;;;25.20;9.77;;;;;;;6.41;100.00;101045.66;5000942;28;20662;-72
2023/12/27 06:52:47;;;;;;;24.90;10.07;;;;;;;6.36;100.00;101048.91;5006846;28;20199;-71
2023/12/27 06:55:13;;;;;;;22.37;9.67;;;;;;;6.32;100.00;101050.53;4990055;28;20587;-72
2023/12/27 06:57:40;;;;;;;26.60;9.70;;;;;;;6.33;100.00;101044.44;4989310;28;20231;-71
2023/12/27 07:00:07;;;;;;;20.60;9.37;;;;;;;6.33;100.00;101052.31;5001935;28;20579;-72
2023/12/27 07:02:34;;;;;;;26.10;10.23;;;;;;;6.34;100.00;101054.09;4989548;28;20211;-71
2023/12/27 07:05:00;;;;;;;24.23;9.60;;;;;;;6.31;100.00;101054.00;4987250;28;20259;-71
2023/12/27 07:07:27;;;;;;;24.13;9.97;;;;;;;6.30;100.00;101033.78;4988679;28;20228;-72
2023/12/27 07:09:53;;;;;;;24.73;10.07;;;;;;;6.34;100.00;101038.31;5008359;28;20201;-71
2023/12/27 07:12:20;;;;;;;27.20;10.23;;;;;;;6.33;100.00;101044.44;4993232;28;20661;-71
2023/12/27 07:14:46;;;;;;;23.57;9.70;;;;;;;6.32;100.00;101031.22;4985855;28;20197;-72
2023/12/27 07:17:13;;;;;;;21.47;10.17;;;;;;;6.34;100.00;101037.44;4986879;28;20234;-71
2023/12/27 07:19:39;;;;;;;24.23;10.17;;;;;;;6.40;100.00;101042.94;4989345;28;20563;-71
2023/12/27 07:22:06;;;;;;;30.97;10.47;;;;;;;6.42;100.00;101043.94;4993716;28;20204;-72
2023/12/27 07:24:32;;;;;;;28.73;10.90;;;;;;;6.39;100.00;101049.94;4992958;28;20193;-72
2023/12/27 07:26:59;;;;;;;27.10;10.33;;;;;;;6.42;100.00;101065.88;4986071;28;21682;-71
2023/12/27 07:29:25;;;;;;;30.90;11.30;;;;;;;6.48;100.00;101062.59;4996550;28;20743;-72
2023/12/27 07:31:52;;;;;;;31.93;11.90;;;;;;;6.49;100.00;101064.38;4989511;28;20231;-72
2023/12/27 07:34:19;;;;;;;31.50;11.00;;;;;;;6.51;100.00;101052.19;4986563;28;20212;-72
2023/12/27 07:36:45;;;;;;;29.07;10.83;;;;;;;6.51;100.00;101047.81;4991311;28;20231;-72
2023/12/27 07:39:13;;;;;;;27.33;10.47;;;;;;;6.54;100.00;101053.19;4993142;28;20196;-72
2023/12/27 07:41:40;;;;;;;31.57;10.80;;;;;;;6.65;100.00;101060.63;4984892;28;20204;-71
2023/12/27 07:44:06;;;;;;;30.23;11.27;;;;;;;6.64;100.00;101053.56;5000655;28;20216;-71
2023/12/27 07:46:33;;;;;;;28.67;11.53;;;;;;;6.58;100.00;101010.38;5000733;28;20232;-71
2023/12/27 07:48:59;;;;;;;27.07;11.13;;;;;;;6.71;100.00;101019.63;4987455;28;20196;-72
2023/12/27 07:51:26;;;;;;;31.70;12.53;;;;;;;6.75;100.00;101015.38;4983839;28;20213;-72
2023/12/27 07:53:52;;;;;;;29.77;10.90;;;;;;;6.71;100.00;101014.38;4986509;28;20578;-71
2023/12/27 07:56:19;;;;;;;36.73;12.03;;;;;;;6.69;100.00;101008.16;5004341;28;20261;-71
2023/12/27 07:58:48;;;;;;;36.13;11.93;;;;;;;6.81;100.00;101007.75;5002139;28;20668;-71
2023/12/27 08:01:15;;;;;;;36.20;10.37;;;;;;;6.83;100.00;101011.34;4987838;28;20208;-72
2023/12/27 08:03:44;;;;;;;30.73;10.87;;;;;;;6.80;100.00;100998.03;4989815;28;20219;-71
2023/12/27 08:06:12;;;;;;;33.17;11.63;;;;;;;6.78;100.00;100992.72;4987807;28;20580;-71
2023/12/27 08:08:38;;;;;;;27.73;11.03;;;;;;;6.82;100.00;100992.03;4988253;28;20217;-71
2023/12/27 08:11:05;;;;;;;27.93;10.90;;;;;;;6.84;100.00;100992.06;4988449;28;20201;-71
2023/12/27 08:13:32;;;;;;;27.03;10.60;;;;;;;6.88;100.00;100992.25;4987970;28;20287;-72
2023/12/27 08:16:00;;;;;;;31.00;10.63;;;;;;;6.94;100.00;100993.31;5004341;28;20685;-73
2023/12/27 08:18:26;;;;;;;27.53;10.03;;;;;;;6.97;100.00;100989.06;4992415;28;20701;-72
2023/12/27 08:20:53;;;;;;;30.97;9.77;;;;;;;7.08;100.00;101006.13;4991619;28;20701;-72
2023/12/27 08:23:20;;;;;;;21.83;9.93;;;;;;;7.11;100.00;100994.81;4992402;28;20202;-72
2023/12/27 08:25:47;;;;;;;23.30;10.30;;;;;;;7.20;100.00;100979.34;4989842;28;20200;-72
2023/12/27 08:28:16;;;;;;;29.93;11.27;;;;;;;7.25;100.00;100966.38;4990809;28;20253;-73
2023/12/27 08:30:44;;;;;;;21.70;10.53;;;;;;;7.34;100.00;100957.06;4987215;28;20193;-73
2023/12/27 08:33:10;;;;;;;22.17;9.93;;;;;;;7.44;100.00;100953.00;4995094;28;20205;-72
2023/12/27 08:35:37;;;;;;;26.53;10.60;;;;;;;7.46;100.00;100936.38;4990299;28;20201;-73
2023/12/27 08:38:05;;;;;;;31.33;9.80;;;;;;;7.55;100.00;100952.50;4991617;28;20230;-71
2023/12/27 08:40:32;;;;;;;21.83;9.40;;;;;;;7.62;100.00;100952.75;4987016;28;20233;-72
2023/12/27 08:42:58;;;;;;;28.43;10.90;;;;;;;7.62;100.00;100963.28;4992303;28;20572;-71
2023/12/27 08:45:25;;;;;;;24.07;9.97;;;;;;;7.63;100.00;100967.72;4987715;28;20323;-72
2023/12/27 08:47:51;;;;;;;22.83;9.80;;;;;;;7.63;100.00;100968.63;4986501;28;20246;-72
2023/12/27 08:50:17;;;;;;;21.17;9.03;;;;;;;7.66;100.00;100970.47;4989124;28;20264;-73
2023/12/27 08:52:44;;;;;;;22.77;8.40;;;;;;;7.70;100.00;100973.25;5005453;28;20391;-72
2023/12/27 08:55:10;;;;;;;15.77;7.50;;;;;;;7.73;100.00;100976.00;4989193;28;20296;-72
2023/12/27 08:57:37;;;;;;;14.43;7.43;;;;;;;7.78;100.00;100986.69;4983717;28;20334;-72
2023/12/27 09:00:10;;;;;;;17.17;8.30;;;;;;;7.81;100.00;100978.88;4991134;28;20693;-71
2023/12/27 09:02:37;;;;;;;16.00;8.23;;;;;;;7.95;100.00;100974.06;4989305;28;20201;-72
2023/12/27 09:05:07;;;;;;;17.57;7.90;;;;;;;8.08;100.00;100973.63;4993474;28;20698;-72
2023/12/27 09:07:34;;;;;;;15.20;7.30;;;;;;;8.27;100.00;100972.47;5008565;28;20226;-72
2023/12/27 09:10:01;;;;;;;18.80;8.10;;;;;;;8.43;100.00;100965.13;4994601;28;20204;-72
2023/12/27 09:12:27;;;;;;;14.67;7.87;;;;;;;8.71;100.00;100963.31;5010118;28;20192;-73
2023/12/27 09:14:54;;;;;;;15.43;8.27;;;;;;;8.88;100.00;100951.53;4997535;28;20290;-72
2023/12/27 09:17:20;;;;;;;18.17;8.00;;;;;;;9.09;100.00;100941.56;4997246;28;20811;-72
2023/12/27 09:19:47;;;;;;;17.83;7.87;;;;;;;9.22;100.00;100945.47;5001740;28;20292;-72
2023/12/27 09:22:13;;;;;;;17.57;8.03;;;;;;;9.24;100.00;100935.81;4999587;28;20201;-72
2023/12/27 09:24:43;;;;;;;17.17;8.17;;;;;;;9.28;100.00;100939.44;4997095;28;20218;-73
2023/12/27 09:27:17;;;;;;;16.47;8.10;;;;;;;9.34;100.00;100944.91;5012031;28;20273;-72
2023/12/27 09:29:44;;;;;;;14.97;7.70;;;;;;;9.36;100.00;100945.84;4990769;28;20699;-72
2023/12/27 09:32:11;;;;;;;17.60;7.50;;;;;;;9.41;100.00;100938.91;4996453;28;20194;-72
2023/12/27 09:34:37;;;;;;;14.57;7.23;;;;;;;9.54;100.00;100922.50;4992425;28;20230;-72
2023/12/27 09:37:04;;;;;;;13.13;6.40;;;;;;;9.68;100.00;100920.25;4986248;28;20309;-73
2023/12/27 09:39:31;;;;;;;11.07;5.70;;;;;;;9.89;100.00;100915.47;5007119;28;20628;-72
2023/12/27 09:41:57;;;;;;;11.97;5.97;;;;;;;10.04;100.00;100907.03;5004642;28;20233;-72
2023/12/27 09:44:24;;;;;;;11.53;5.97;;;;;;;10.15;100.00;100908.16;4985818;28;20228;-73
2023/12/27 09:46:50;;;;;;;9.97;5.97;;;;;;;10.01;100.00;100913.16;4994097;28;20216;-72
2023/12/27 09:49:20;;;;;;;11.10;5.13;;;;;;;10.04;100.00;100912.31;4989982;28;20276;-72
2023/12/27 09:51:47;;;;;;;11.17;5.27;;;;;;;9.99;100.00;100903.34;4988521;28;20759;-72
2023/12/27 09:54:16;;;;;;;9.40;5.17;;;;;;;9.95;100.00;100893.56;4988488;28;20197;-72
2023/12/27 09:56:44;;;;;;;11.87;5.70;;;;;;;9.77;100.00;100906.34;4987160;28;20227;-72
2023/12/27 09:59:17;;;;;;;9.63;5.87;;;;;;;9.64;100.00;100902.50;4988657;28;20235;-73
2023/12/27 10:01:49;;;;;;;10.20;6.30;;;;;;;9.51;100.00;100903.91;4987598;28;20199;-72
2023/12/27 10:04:42;;;;;;;14.87;7.03;;;;;;;9.39;100.00;100895.69;4988499;28;20317;-72
2023/12/27 10:07:09;;;;;;;14.93;7.17;;;;;;;9.30;100.00;100899.00;4989983;28;20762;-72
2023/12/27 10:09:36;;;;;;;13.00;7.10;;;;;;;9.33;100.00;100899.06;5003714;28;20285;-72
2023/12/27 10:12:04;;;;;;;11.07;6.10;;;;;;;9.31;100.00;100910.44;4997961;28;20200;-73
2023/12/27 10:14:31;;;;;;;11.37;6.33;;;;;;;9.30;100.00;100919.25;4987225;28;20204;-73
2023/12/27 10:16:57;;;;;;;10.87;5.90;;;;;;;9.25;100.00;100915.56;4989585;28;20256;-72
2023/12/27 10:19:39;;;;;;;10.97;5.90;;;;;;;9.21;100.00;100916.34;5001717;28;20362;-68
2023/12/27 10:22:06;;;;;;;10.00;6.00;;;;;;;9.14;100.00;100911.72;4993508;28;20217;-69
2023/12/27 10:24:34;;;;;;;10.13;5.50;;;;;;;9.10;100.00;100898.44;4992157;28;20666;-68
2023/12/27 10:27:02;;;;;;;11.87;5.40;;;;;;;9.13;100.00;100891.44;4995069;28;20224;-69
2023/12/27 10:29:31;;;;;;;10.07;5.30;;;;;;;9.11;100.00;100894.03;4993633;28;20264;-69
2023/12/27 10:32:06;;;;;;;11.67;5.77;;;;;;;9.13;100.00;100868.56;5006696;28;20315;-69
2023/12/27 10:34:33;;;;;;;10.87;5.37;;;;;;;9.18;100.00;100860.75;4985604;28;20198;-67
2023/12/27 10:37:01;;;;;;;9.97;4.80;;;;;;;9.18;100.00;100860.75;4995534;28;20313;-66
2023/12/27 10:39:27;;;;;;;10.03;4.73;;;;;;;9.22;100.00;100857.38;4991585;28;20243;-68
2023/12/27 10:41:54;;;;;;;8.37;4.77;;;;;;;9.18;100.00;100848.44;5002849;28;20208;-70
2023/12/27 10:44:21;;;;;;;9.43;4.10;;;;;;;9.08;100.00;100817.34;5004561;28;20206;-70
2023/12/27 10:46:49;;;;;;;8.10;4.47;;;;;;;9.15;100.00;100821.94;4997206;28;20223;-68
2023/12/27 10:49:16;;;;;;;8.93;4.50;;;;;;;9.12;100.00;100824.50;4992185;28;20200;-68
2023/12/27 10:51:47;;;;;;;8.13;4.73;;;;;;;9.07;100.00;100832.28;4993296;28;20207;-70
2023/12/27 10:54:14;;;;;;;6.60;4.20;;;;;;;9.07;100.00;100826.13;4994471;28;20212;-70
2023/12/27 10:56:41;;;;;;;8.67;4.03;;;;;;;9.16;100.00;100820.19;5007065;28;20844;-69
2023/12/27 10:59:08;;;;;;;6.93;3.60;;;;;;;9.29;100.00;100823.19;4991788;28;20207;-69
2023/12/27 11:01:37;;;;;;;11.00;3.60;;;;;;;9.38;100.00;100815.50;4983132;28;20313;-72
2023/12/27 11:04:11;;;;;;;6.30;3.00;;;;;;;9.49;100.00;100817.50;4994394;28;20254;-71
2023/12/27 11:06:39;;;;;;;5.87;2.90;;;;;;;9.61;100.00;100808.13;4991788;28;20228;-70
2023/12/27 11:09:09;;;;;;;6.00;3.00;;;;;;;9.70;100.00;100802.16;4995434;28;20232;-70
2023/12/27 11:11:40;;;;;;;7.10;3.23;;;;;;;9.66;100.00;100782.69;4986755;28;20205;-70
2023/12/27 11:14:09;;;;;;;6.60;3.57;;;;;;;9.83;100.00;100775.13;4992565;28;20674;-69
2023/12/27 11:16:39;;;;;;;6.50;3.20;;;;;;;9.92;100.00;100772.69;4994686;28;20772;-68
2023/12/27 11:19:07;;;;;;;5.33;3.17;;;;;;;10.02;100.00;100769.41;4993276;28;20259;-71
2023/12/27 11:21:37;;;;;;;5.10;2.87;;;;;;;10.13;100.00;100760.78;4997362;28;20198;-69